METAR AND TAF INFORMATION
METAR FOR WBSB
WBSB 231900Z 16003KT 9999 FEW014 BKN280 26/24 Q1008 NOSIG
WBSB 231830Z 15004KT 9999 FEW015 BKN280 27/25 Q1009 NOSIG
WBSB 231800Z 16004KT 9999 FEW015 BKN280 27/25 Q1009 NOSIG
WBSB 231730Z 19003KT 9999 FEW015 BKN280 28/27 Q1009 NOSIG
WBSB 231700Z 16004KT 9999 FEW015 BKN280 28/27 Q1010 NOSIG
WBSB 231630Z 21006KT 9999 FEW015 BKN280 28/26 Q1010 NOSIG
WBSB 231600Z 22004KT 9999 FEW015 BKN280 28/26 Q1010 NOSIG

TAF WBSB 231700Z 2318/2500 23004KT 9999 FEW014 FEW015CB
TEMPO 2320/2400 7000 -SHRA FEW004
BECMG 2404/2406 27010KT FEW015 FEW016CB

 AIRPORT MAP

 RUNWAY INFORMATION
Runway 03 Runway length 12000 ft Runway width 150 ft
Runway elevation 20 ft Runway displaced threshold 0 ft Runway heading 31
Runway 21 Runway length 12000 ft Runway width 150 ft
Runway elevation 72 ft Runway displaced threshold 0 ft Runway heading 211

 AIRPORT FREQUENCIES
Type APP Name RADAR Frequency 121.3 MHZ
Type ATIS Name ATIS Frequency 126.8 MHZ
Type GND Name GND Frequency 121.9 MHZ
Type TWR Name TWR Frequency 118.7 MHZ

 AIRPORT NEAR NAVIGATION AIDS
Type NDB Name Brunei Frequency 318 KHZ
Type VOR-DME Name Brunei Frequency 112000 KHZ

-